sensor_id;sensor_type;location;lat;lon;timestamp;P1;durP1;ratioP1;P2;durP2;ratioP2
20908;SDS011;10614;53.198;6.570;2023-02-25T00:00:20;18.98;;;2.78;;
20908;SDS011;10614;53.198;6.570;2023-02-25T00:02:21;20.48;;;2.20;;
20908;SDS011;10614;53.198;6.570;2023-02-25T00:04:27;11.05;;;2.33;;
20908;SDS011;10614;53.198;6.570;2023-02-25T00:06:28;16.08;;;2.22;;
20908;SDS011;10614;53.198;6.570;2023-02-25T00:08:30;16.90;;;2.17;;
20908;SDS011;10614;53.198;6.570;2023-02-25T00:10:33;10.13;;;1.42;;
20908;SDS011;10614;53.198;6.570;2023-02-25T00:12:35;15.27;;;1.98;;
20908;SDS011;10614;53.198;6.570;2023-02-25T00:14:36;15.30;;;2.15;;
20908;SDS011;10614;53.198;6.570;2023-02-25T00:16:39;16.27;;;1.98;;
20908;SDS011;10614;53.198;6.570;2023-02-25T00:18:41;18.35;;;3.10;;
20908;SDS011;10614;53.198;6.570;2023-02-25T00:20:46;8.23;;;1.85;;
20908;SDS011;10614;53.198;6.570;2023-02-25T00:22:48;19.15;;;1.80;;
20908;SDS011;10614;53.198;6.570;2023-02-25T00:24:50;15.10;;;2.17;;
20908;SDS011;10614;53.198;6.570;2023-02-25T00:26:52;14.23;;;2.22;;
20908;SDS011;10614;53.198;6.570;2023-02-25T00:28:54;22.25;;;2.67;;
20908;SDS011;10614;53.198;6.570;2023-02-25T00:30:56;15.73;;;2.08;;
20908;SDS011;10614;53.198;6.570;2023-02-25T00:32:57;10.93;;;2.15;;
20908;SDS011;10614;53.198;6.570;2023-02-25T00:34:59;13.52;;;2.15;;
20908;SDS011;10614;53.198;6.570;2023-02-25T00:37:02;14.90;;;1.88;;
20908;SDS011;10614;53.198;6.570;2023-02-25T00:39:04;10.77;;;1.52;;
20908;SDS011;10614;53.198;6.570;2023-02-25T00:41:06;13.70;;;2.58;;
20908;SDS011;10614;53.198;6.570;2023-02-25T00:43:10;8.32;;;1.75;;
20908;SDS011;10614;53.198;6.570;2023-02-25T00:45:12;8.27;;;1.48;;
20908;SDS011;10614;53.198;6.570;2023-02-25T00:47:14;10.65;;;1.20;;
20908;SDS011;10614;53.198;6.570;2023-02-25T00:49:17;4.07;;;1.08;;
20908;SDS011;10614;53.198;6.570;2023-02-25T00:51:19;2.13;;;0.88;;
20908;SDS011;10614;53.198;6.570;2023-02-25T00:53:23;8.07;;;0.85;;
20908;SDS011;10614;53.198;6.570;2023-02-25T00:55:25;3.28;;;0.88;;
20908;SDS011;10614;53.198;6.570;2023-02-25T00:57:32;1.98;;;0.50;;
20908;SDS011;10614;53.198;6.570;2023-02-25T00:59:33;1.75;;;0.63;;
20908;SDS011;10614;53.198;6.570;2023-02-25T01:01:35;3.83;;;0.60;;
20908;SDS011;10614;53.198;6.570;2023-02-25T01:03:37;5.97;;;0.82;;
20908;SDS011;10614;53.198;6.570;2023-02-25T01:05:39;5.25;;;0.82;;
20908;SDS011;10614;53.198;6.570;2023-02-25T01:07:41;2.85;;;0.80;;
20908;SDS011;10614;53.198;6.570;2023-02-25T01:09:44;5.60;;;0.70;;
20908;SDS011;10614;53.198;6.570;2023-02-25T01:11:46;5.63;;;0.57;;
20908;SDS011;10614;53.198;6.570;2023-02-25T01:13:49;4.75;;;0.80;;
20908;SDS011;10614;53.198;6.570;2023-02-25T01:15:50;2.25;;;0.57;;
20908;SDS011;10614;53.198;6.570;2023-02-25T01:17:52;6.13;;;0.82;;
20908;SDS011;10614;53.198;6.570;2023-02-25T01:19:54;2.80;;;1.15;;
20908;SDS011;10614;53.198;6.570;2023-02-25T01:21:57;4.18;;;1.33;;
20908;SDS011;10614;53.198;6.570;2023-02-25T01:24:00;9.18;;;1.38;;
20908;SDS011;10614;53.198;6.570;2023-02-25T01:26:04;9.57;;;1.07;;
20908;SDS011;10614;53.198;6.570;2023-02-25T01:28:06;9.57;;;1.60;;
20908;SDS011;10614;53.198;6.570;2023-02-25T01:30:08;25.67;;;2.78;;
20908;SDS011;10614;53.198;6.570;2023-02-25T01:32:12;13.82;;;2.38;;
20908;SDS011;10614;53.198;6.570;2023-02-25T01:34:15;18.23;;;2.55;;
20908;SDS011;10614;53.198;6.570;2023-02-25T01:36:17;10.77;;;2.15;;
20908;SDS011;10614;53.198;6.570;2023-02-25T01:38:19;18.77;;;2.47;;
20908;SDS011;10614;53.198;6.570;2023-02-25T01:40:21;21.40;;;3.33;;
20908;SDS011;10614;53.198;6.570;2023-02-25T01:42:24;14.02;;;1.80;;
20908;SDS011;10614;53.198;6.570;2023-02-25T01:44:28;8.20;;;1.60;;
20908;SDS011;10614;53.198;6.570;2023-02-25T01:46:31;12.02;;;1.83;;
20908;SDS011;10614;53.198;6.570;2023-02-25T01:48:33;14.45;;;1.45;;
20908;SDS011;10614;53.198;6.570;2023-02-25T01:50:40;12.27;;;1.70;;
20908;SDS011;10614;53.198;6.570;2023-02-25T01:52:46;7.68;;;1.80;;
20908;SDS011;10614;53.198;6.570;2023-02-25T01:54:48;5.57;;;1.35;;
20908;SDS011;10614;53.198;6.570;2023-02-25T01:56:53;8.73;;;1.42;;
20908;SDS011;10614;53.198;6.570;2023-02-25T01:58:59;12.02;;;2.28;;
20908;SDS011;10614;53.198;6.570;2023-02-25T02:01:00;8.13;;;1.58;;
20908;SDS011;10614;53.198;6.570;2023-02-25T02:03:02;8.73;;;1.88;;
20908;SDS011;10614;53.198;6.570;2023-02-25T02:05:05;8.15;;;1.15;;
20908;SDS011;10614;53.198;6.570;2023-02-25T02:07:07;14.48;;;1.88;;
20908;SDS011;10614;53.198;6.570;2023-02-25T02:09:10;6.60;;;1.38;;
20908;SDS011;10614;53.198;6.570;2023-02-25T02:11:13;15.88;;;1.80;;
20908;SDS011;10614;53.198;6.570;2023-02-25T02:13:15;12.50;;;2.08;;
20908;SDS011;10614;53.198;6.570;2023-02-25T02:15:18;12.18;;;1.90;;
20908;SDS011;10614;53.198;6.570;2023-02-25T02:17:21;11.40;;;2.38;;
20908;SDS011;10614;53.198;6.570;2023-02-25T02:19:31;13.15;;;1.30;;
20908;SDS011;10614;53.198;6.570;2023-02-25T02:21:45;9.15;;;1.98;;
20908;SDS011;10614;53.198;6.570;2023-02-25T02:24:01;12.30;;;1.63;;
20908;SDS011;10614;53.198;6.570;2023-02-25T02:32:07;14.48;;;2.10;;
20908;SDS011;10614;53.198;6.570;2023-02-25T02:34:18;12.27;;;1.83;;
20908;SDS011;10614;53.198;6.570;2023-02-25T02:36:29;13.95;;;1.92;;
20908;SDS011;10614;53.198;6.570;2023-02-25T02:38:42;13.50;;;1.73;;
20908;SDS011;10614;53.198;6.570;2023-02-25T02:40:53;10.07;;;1.50;;
20908;SDS011;10614;53.198;6.570;2023-02-25T02:43:05;16.02;;;2.17;;
20908;SDS011;10614;53.198;6.570;2023-02-25T02:45:15;12.20;;;1.60;;
20908;SDS011;10614;53.198;6.570;2023-02-25T02:47:22;14.63;;;2.15;;
20908;SDS011;10614;53.198;6.570;2023-02-25T02:49:29;18.00;;;2.03;;
20908;SDS011;10614;53.198;6.570;2023-02-25T02:51:38;6.75;;;1.13;;
20908;SDS011;10614;53.198;6.570;2023-02-25T02:53:47;13.20;;;1.73;;
20908;SDS011;10614;53.198;6.570;2023-02-25T02:55:54;7.50;;;1.10;;
20908;SDS011;10614;53.198;6.570;2023-02-25T02:57:59;8.73;;;1.20;;
20908;SDS011;10614;53.198;6.570;2023-02-25T03:00:05;6.95;;;1.45;;
20908;SDS011;10614;53.198;6.570;2023-02-25T03:02:17;4.85;;;0.88;;
20908;SDS011;10614;53.198;6.570;2023-02-25T03:04:24;3.78;;;0.75;;
20908;SDS011;10614;53.198;6.570;2023-02-25T03:06:31;3.40;;;0.50;;
20908;SDS011;10614;53.198;6.570;2023-02-25T03:08:39;3.38;;;0.63;;
20908;SDS011;10614;53.198;6.570;2023-02-25T03:10:44;7.28;;;0.80;;
20908;SDS011;10614;53.198;6.570;2023-02-25T03:12:46;6.20;;;0.88;;
20908;SDS011;10614;53.198;6.570;2023-02-25T03:14:48;8.35;;;1.80;;
20908;SDS011;10614;53.198;6.570;2023-02-25T03:16:50;6.28;;;0.93;;
20908;SDS011;10614;53.198;6.570;2023-02-25T03:18:58;5.90;;;1.00;;
20908;SDS011;10614;53.198;6.570;2023-02-25T03:21:10;3.92;;;1.00;;
20908;SDS011;10614;53.198;6.570;2023-02-25T03:23:16;2.95;;;0.70;;
20908;SDS011;10614;53.198;6.570;2023-02-25T03:25:21;6.18;;;0.68;;
20908;SDS011;10614;53.198;6.570;2023-02-25T03:29:28;4.22;;;0.77;;
20908;SDS011;10614;53.198;6.570;2023-02-25T03:31:30;5.28;;;0.88;;
20908;SDS011;10614;53.198;6.570;2023-02-25T03:33:38;1.98;;;0.60;;
20908;SDS011;10614;53.198;6.570;2023-02-25T03:35:47;6.47;;;0.77;;
20908;SDS011;10614;53.198;6.570;2023-02-25T03:37:53;2.30;;;0.60;;
20908;SDS011;10614;53.198;6.570;2023-02-25T03:40:00;3.08;;;0.73;;
20908;SDS011;10614;53.198;6.570;2023-02-25T03:42:10;2.95;;;0.63;;
20908;SDS011;10614;53.198;6.570;2023-02-25T03:44:16;4.03;;;0.55;;
20908;SDS011;10614;53.198;6.570;2023-02-25T03:46:21;3.05;;;0.95;;
20908;SDS011;10614;53.198;6.570;2023-02-25T03:48:23;6.78;;;0.77;;
20908;SDS011;10614;53.198;6.570;2023-02-25T03:50:26;4.72;;;0.85;;
20908;SDS011;10614;53.198;6.570;2023-02-25T03:52:34;4.95;;;0.60;;
20908;SDS011;10614;53.198;6.570;2023-02-25T03:54:37;1.52;;;0.38;;
20908;SDS011;10614;53.198;6.570;2023-02-25T03:56:40;3.67;;;0.50;;
20908;SDS011;10614;53.198;6.570;2023-02-25T03:58:43;3.67;;;0.75;;
20908;SDS011;10614;53.198;6.570;2023-02-25T04:00:46;4.82;;;0.70;;
20908;SDS011;10614;53.198;6.570;2023-02-25T04:02:50;4.43;;;0.65;;
20908;SDS011;10614;53.198;6.570;2023-02-25T04:04:52;5.78;;;0.65;;
20908;SDS011;10614;53.198;6.570;2023-02-25T04:06:54;2.92;;;0.32;;
20908;SDS011;10614;53.198;6.570;2023-02-25T04:08:55;2.50;;;0.80;;
20908;SDS011;10614;53.198;6.570;2023-02-25T04:10:58;1.40;;;0.20;;
20908;SDS011;10614;53.198;6.570;2023-02-25T04:13:00;4.78;;;0.70;;
20908;SDS011;10614;53.198;6.570;2023-02-25T04:15:02;2.80;;;0.50;;
20908;SDS011;10614;53.198;6.570;2023-02-25T04:17:04;1.48;;;0.38;;
20908;SDS011;10614;53.198;6.570;2023-02-25T04:19:06;5.28;;;1.25;;
20908;SDS011;10614;53.198;6.570;2023-02-25T04:21:08;1.75;;;0.35;;
20908;SDS011;10614;53.198;6.570;2023-02-25T04:23:21;0.50;;;0.30;;
20908;SDS011;10614;53.198;6.570;2023-02-25T04:25:23;1.83;;;0.30;;
20908;SDS011;10614;53.198;6.570;2023-02-25T04:27:26;2.15;;;0.50;;
20908;SDS011;10614;53.198;6.570;2023-02-25T04:29:28;1.20;;;0.30;;
20908;SDS011;10614;53.198;6.570;2023-02-25T04:31:30;1.85;;;0.30;;
20908;SDS011;10614;53.198;6.570;2023-02-25T04:33:32;3.53;;;0.32;;
20908;SDS011;10614;53.198;6.570;2023-02-25T04:35:33;1.98;;;0.38;;
20908;SDS011;10614;53.198;6.570;2023-02-25T04:37:35;2.38;;;0.47;;
20908;SDS011;10614;53.198;6.570;2023-02-25T04:39:36;8.05;;;0.63;;
20908;SDS011;10614;53.198;6.570;2023-02-25T04:41:38;3.15;;;0.40;;
20908;SDS011;10614;53.198;6.570;2023-02-25T04:43:41;1.63;;;0.55;;
20908;SDS011;10614;53.198;6.570;2023-02-25T04:45:44;5.80;;;0.98;;
20908;SDS011;10614;53.198;6.570;2023-02-25T04:47:46;3.20;;;0.50;;
20908;SDS011;10614;53.198;6.570;2023-02-25T04:49:47;1.23;;;0.32;;
20908;SDS011;10614;53.198;6.570;2023-02-25T04:51:49;3.55;;;0.50;;
20908;SDS011;10614;53.198;6.570;2023-02-25T04:53:51;1.98;;;0.50;;
20908;SDS011;10614;53.198;6.570;2023-02-25T04:55:53;4.25;;;0.38;;
20908;SDS011;10614;53.198;6.570;2023-02-25T04:57:55;2.15;;;0.35;;
20908;SDS011;10614;53.198;6.570;2023-02-25T04:59:58;0.77;;;0.30;;
20908;SDS011;10614;53.198;6.570;2023-02-25T05:01:59;2.92;;;0.52;;
20908;SDS011;10614;53.198;6.570;2023-02-25T05:04:01;4.43;;;0.55;;
20908;SDS011;10614;53.198;6.570;2023-02-25T05:06:03;0.73;;;0.30;;
20908;SDS011;10614;53.198;6.570;2023-02-25T05:08:06;2.97;;;0.68;;
20908;SDS011;10614;53.198;6.570;2023-02-25T05:10:10;3.60;;;0.45;;
20908;SDS011;10614;53.198;6.570;2023-02-25T05:12:13;6.47;;;0.57;;
20908;SDS011;10614;53.198;6.570;2023-02-25T05:14:15;0.85;;;0.40;;
20908;SDS011;10614;53.198;6.570;2023-02-25T05:16:18;5.40;;;0.50;;
20908;SDS011;10614;53.198;6.570;2023-02-25T05:18:20;0.93;;;0.30;;
20908;SDS011;10614;53.198;6.570;2023-02-25T05:20:22;3.20;;;0.40;;
20908;SDS011;10614;53.198;6.570;2023-02-25T05:22:24;2.00;;;0.30;;
20908;SDS011;10614;53.198;6.570;2023-02-25T05:24:26;2.15;;;0.52;;
20908;SDS011;10614;53.198;6.570;2023-02-25T05:26:28;1.52;;;0.25;;
20908;SDS011;10614;53.198;6.570;2023-02-25T05:28:29;3.13;;;0.30;;
20908;SDS011;10614;53.198;6.570;2023-02-25T05:30:31;1.15;;;0.30;;
20908;SDS011;10614;53.198;6.570;2023-02-25T05:32:34;2.30;;;0.47;;
20908;SDS011;10614;53.198;6.570;2023-02-25T05:34:37;2.70;;;0.30;;
20908;SDS011;10614;53.198;6.570;2023-02-25T05:36:40;2.03;;;0.47;;
20908;SDS011;10614;53.198;6.570;2023-02-25T05:38:42;1.40;;;0.40;;
20908;SDS011;10614;53.198;6.570;2023-02-25T05:40:44;4.18;;;0.50;;
20908;SDS011;10614;53.198;6.570;2023-02-25T05:42:46;6.07;;;0.70;;
20908;SDS011;10614;53.198;6.570;2023-02-25T05:44:48;5.65;;;1.63;;
20908;SDS011;10614;53.198;6.570;2023-02-25T05:46:50;6.90;;;0.63;;
20908;SDS011;10614;53.198;6.570;2023-02-25T05:48:53;4.43;;;0.55;;
20908;SDS011;10614;53.198;6.570;2023-02-25T05:50:58;7.03;;;0.73;;
20908;SDS011;10614;53.198;6.570;2023-02-25T05:53:00;5.65;;;1.27;;
20908;SDS011;10614;53.198;6.570;2023-02-25T05:55:02;2.65;;;0.60;;
20908;SDS011;10614;53.198;6.570;2023-02-25T05:57:05;4.50;;;0.70;;
20908;SDS011;10614;53.198;6.570;2023-02-25T05:59:06;4.53;;;0.73;;
20908;SDS011;10614;53.198;6.570;2023-02-25T06:01:08;6.03;;;0.50;;
20908;SDS011;10614;53.198;6.570;2023-02-25T06:03:12;2.35;;;0.50;;
20908;SDS011;10614;53.198;6.570;2023-02-25T06:05:15;6.97;;;0.63;;
20908;SDS011;10614;53.198;6.570;2023-02-25T06:07:17;2.83;;;1.00;;
20908;SDS011;10614;53.198;6.570;2023-02-25T06:09:19;2.45;;;0.32;;
20908;SDS011;10614;53.198;6.570;2023-02-25T06:11:22;6.18;;;0.60;;
20908;SDS011;10614;53.198;6.570;2023-02-25T06:13:25;1.55;;;0.40;;
20908;SDS011;10614;53.198;6.570;2023-02-25T06:15:27;2.03;;;0.50;;
20908;SDS011;10614;53.198;6.570;2023-02-25T06:17:28;5.68;;;0.98;;
20908;SDS011;10614;53.198;6.570;2023-02-25T06:19:30;1.33;;;0.35;;
20908;SDS011;10614;53.198;6.570;2023-02-25T06:21:33;2.45;;;0.68;;
20908;SDS011;10614;53.198;6.570;2023-02-25T06:23:37;4.90;;;1.17;;
20908;SDS011;10614;53.198;6.570;2023-02-25T06:25:40;3.07;;;0.50;;
20908;SDS011;10614;53.198;6.570;2023-02-25T06:27:41;6.10;;;0.65;;
20908;SDS011;10614;53.198;6.570;2023-02-25T06:29:45;2.25;;;0.30;;
20908;SDS011;10614;53.198;6.570;2023-02-25T06:31:47;2.28;;;0.60;;
20908;SDS011;10614;53.198;6.570;2023-02-25T06:33:49;2.67;;;0.40;;
20908;SDS011;10614;53.198;6.570;2023-02-25T06:35:51;0.65;;;0.20;;
20908;SDS011;10614;53.198;6.570;2023-02-25T06:37:55;3.25;;;0.32;;
20908;SDS011;10614;53.198;6.570;2023-02-25T06:39:58;0.38;;;0.22;;
20908;SDS011;10614;53.198;6.570;2023-02-25T06:42:00;2.78;;;0.50;;
20908;SDS011;10614;53.198;6.570;2023-02-25T06:44:02;1.92;;;0.40;;
20908;SDS011;10614;53.198;6.570;2023-02-25T06:46:05;2.45;;;0.60;;
20908;SDS011;10614;53.198;6.570;2023-02-25T06:48:09;0.65;;;0.20;;
20908;SDS011;10614;53.198;6.570;2023-02-25T06:50:11;4.25;;;0.63;;
20908;SDS011;10614;53.198;6.570;2023-02-25T06:52:13;1.88;;;0.40;;
20908;SDS011;10614;53.198;6.570;2023-02-25T06:54:16;0.47;;;0.30;;
20908;SDS011;10614;53.198;6.570;2023-02-25T06:56:18;1.20;;;0.60;;
20908;SDS011;10614;53.198;6.570;2023-02-25T06:58:20;0.93;;;0.30;;
20908;SDS011;10614;53.198;6.570;2023-02-25T07:00:22;1.50;;;0.40;;
20908;SDS011;10614;53.198;6.570;2023-02-25T07:02:24;2.60;;;0.50;;
20908;SDS011;10614;53.198;6.570;2023-02-25T07:04:26;2.33;;;0.40;;
20908;SDS011;10614;53.198;6.570;2023-02-25T07:06:27;1.90;;;0.47;;
20908;SDS011;10614;53.198;6.570;2023-02-25T07:08:29;0.60;;;0.40;;
20908;SDS011;10614;53.198;6.570;2023-02-25T07:10:32;2.58;;;0.60;;
20908;SDS011;10614;53.198;6.570;2023-02-25T07:12:34;4.20;;;1.10;;
20908;SDS011;10614;53.198;6.570;2023-02-25T07:14:36;1.90;;;0.70;;
20908;SDS011;10614;53.198;6.570;2023-02-25T07:16:38;2.00;;;0.85;;
20908;SDS011;10614;53.198;6.570;2023-02-25T07:18:40;3.83;;;0.80;;
20908;SDS011;10614;53.198;6.570;2023-02-25T07:20:42;5.40;;;0.95;;
20908;SDS011;10614;53.198;6.570;2023-02-25T07:22:43;1.55;;;0.30;;
20908;SDS011;10614;53.198;6.570;2023-02-25T07:24:45;5.25;;;0.77;;
20908;SDS011;10614;53.198;6.570;2023-02-25T07:26:48;1.27;;;0.38;;
20908;SDS011;10614;53.198;6.570;2023-02-25T07:28:50;5.93;;;0.73;;
20908;SDS011;10614;53.198;6.570;2023-02-25T07:30:51;3.92;;;0.70;;
20908;SDS011;10614;53.198;6.570;2023-02-25T07:32:53;4.57;;;1.10;;
20908;SDS011;10614;53.198;6.570;2023-02-25T07:34:55;4.47;;;0.60;;
20908;SDS011;10614;53.198;6.570;2023-02-25T07:36:57;2.45;;;0.63;;
20908;SDS011;10614;53.198;6.570;2023-02-25T07:38:59;3.83;;;0.60;;
20908;SDS011;10614;53.198;6.570;2023-02-25T07:41:03;2.47;;;0.63;;
20908;SDS011;10614;53.198;6.570;2023-02-25T07:43:07;7.45;;;0.77;;
20908;SDS011;10614;53.198;6.570;2023-02-25T07:45:09;5.65;;;0.60;;
20908;SDS011;10614;53.198;6.570;2023-02-25T07:47:12;3.25;;;0.65;;
20908;SDS011;10614;53.198;6.570;2023-02-25T07:49:13;4.10;;;0.63;;
20908;SDS011;10614;53.198;6.570;2023-02-25T07:51:16;5.30;;;0.88;;
20908;SDS011;10614;53.198;6.570;2023-02-25T07:53:19;6.55;;;0.90;;
20908;SDS011;10614;53.198;6.570;2023-02-25T07:55:22;7.25;;;1.00;;
20908;SDS011;10614;53.198;6.570;2023-02-25T07:57:23;7.03;;;1.75;;
20908;SDS011;10614;53.198;6.570;2023-02-25T07:59:26;7.43;;;1.52;;
20908;SDS011;10614;53.198;6.570;2023-02-25T08:01:29;6.82;;;1.05;;
20908;SDS011;10614;53.198;6.570;2023-02-25T08:05:35;5.88;;;0.80;;
20908;SDS011;10614;53.198;6.570;2023-02-25T08:07:37;4.40;;;0.93;;
20908;SDS011;10614;53.198;6.570;2023-02-25T08:09:39;5.10;;;0.80;;
20908;SDS011;10614;53.198;6.570;2023-02-25T08:11:41;4.00;;;1.20;;
20908;SDS011;10614;53.198;6.570;2023-02-25T08:13:43;7.20;;;0.70;;
20908;SDS011;10614;53.198;6.570;2023-02-25T08:15:46;7.47;;;0.85;;
20908;SDS011;10614;53.198;6.570;2023-02-25T08:17:48;1.73;;;0.68;;
20908;SDS011;10614;53.198;6.570;2023-02-25T08:19:52;9.82;;;1.00;;
20908;SDS011;10614;53.198;6.570;2023-02-25T08:21:53;5.03;;;0.88;;
20908;SDS011;10614;53.198;6.570;2023-02-25T08:23:55;6.80;;;0.75;;
20908;SDS011;10614;53.198;6.570;2023-02-25T08:25:57;8.35;;;0.88;;
20908;SDS011;10614;53.198;6.570;2023-02-25T08:27:59;7.75;;;0.95;;
20908;SDS011;10614;53.198;6.570;2023-02-25T08:30:01;5.25;;;0.85;;
20908;SDS011;10614;53.198;6.570;2023-02-25T08:32:09;5.70;;;0.80;;
20908;SDS011;10614;53.198;6.570;2023-02-25T08:34:11;4.93;;;0.90;;
20908;SDS011;10614;53.198;6.570;2023-02-25T08:36:14;3.00;;;0.77;;
20908;SDS011;10614;53.198;6.570;2023-02-25T08:38:17;5.38;;;0.90;;
20908;SDS011;10614;53.198;6.570;2023-02-25T08:40:19;5.60;;;1.13;;
20908;SDS011;10614;53.198;6.570;2023-02-25T08:42:22;11.48;;;1.10;;
20908;SDS011;10614;53.198;6.570;2023-02-25T08:44:24;4.57;;;0.65;;
20908;SDS011;10614;53.198;6.570;2023-02-25T08:46:28;4.45;;;1.02;;
20908;SDS011;10614;53.198;6.570;2023-02-25T08:48:32;7.57;;;1.10;;
20908;SDS011;10614;53.198;6.570;2023-02-25T08:50:34;6.38;;;0.82;;
20908;SDS011;10614;53.198;6.570;2023-02-25T08:52:36;8.00;;;1.60;;
20908;SDS011;10614;53.198;6.570;2023-02-25T08:54:37;5.03;;;1.00;;
20908;SDS011;10614;53.198;6.570;2023-02-25T08:56:40;5.15;;;0.90;;
20908;SDS011;10614;53.198;6.570;2023-02-25T08:58:43;5.50;;;1.10;;
20908;SDS011;10614;53.198;6.570;2023-02-25T09:00:45;5.88;;;1.23;;
20908;SDS011;10614;53.198;6.570;2023-02-25T09:02:48;6.07;;;1.60;;
20908;SDS011;10614;53.198;6.570;2023-02-25T09:04:51;5.30;;;0.80;;
20908;SDS011;10614;53.198;6.570;2023-02-25T09:06:53;6.32;;;0.70;;
20908;SDS011;10614;53.198;6.570;2023-02-25T09:08:57;4.13;;;1.00;;
20908;SDS011;10614;53.198;6.570;2023-02-25T09:10:59;4.80;;;1.05;;
20908;SDS011;10614;53.198;6.570;2023-02-25T09:13:00;7.18;;;0.77;;
20908;SDS011;10614;53.198;6.570;2023-02-25T09:15:02;3.28;;;1.23;;
20908;SDS011;10614;53.198;6.570;2023-02-25T09:17:05;4.22;;;0.60;;
20908;SDS011;10614;53.198;6.570;2023-02-25T09:19:07;6.00;;;0.77;;
20908;SDS011;10614;53.198;6.570;2023-02-25T09:21:11;7.18;;;0.88;;
20908;SDS011;10614;53.198;6.570;2023-02-25T09:23:14;3.38;;;0.73;;
20908;SDS011;10614;53.198;6.570;2023-02-25T09:25:16;6.68;;;0.75;;
20908;SDS011;10614;53.198;6.570;2023-02-25T09:27:17;11.55;;;0.98;;
20908;SDS011;10614;53.198;6.570;2023-02-25T09:29:19;2.70;;;0.85;;
20908;SDS011;10614;53.198;6.570;2023-02-25T09:31:20;9.45;;;1.17;;
20908;SDS011;10614;53.198;6.570;2023-02-25T09:33:22;2.70;;;0.43;;
20908;SDS011;10614;53.198;6.570;2023-02-25T09:35:23;9.00;;;1.17;;
20908;SDS011;10614;53.198;6.570;2023-02-25T09:37:27;7.05;;;0.95;;
20908;SDS011;10614;53.198;6.570;2023-02-25T09:39:28;4.88;;;0.77;;
20908;SDS011;10614;53.198;6.570;2023-02-25T09:41:31;6.55;;;0.90;;
20908;SDS011;10614;53.198;6.570;2023-02-25T09:43:39;5.43;;;0.95;;
20908;SDS011;10614;53.198;6.570;2023-02-25T09:45:42;5.85;;;0.95;;
20908;SDS011;10614;53.198;6.570;2023-02-25T09:47:48;5.90;;;1.10;;
20908;SDS011;10614;53.198;6.570;2023-02-25T09:49:55;7.38;;;1.25;;
20908;SDS011;10614;53.198;6.570;2023-02-25T09:52:00;4.00;;;0.98;;
20908;SDS011;10614;53.198;6.570;2023-02-25T09:54:10;7.05;;;1.02;;
20908;SDS011;10614;53.198;6.570;2023-02-25T09:56:18;9.20;;;1.17;;
20908;SDS011;10614;53.198;6.570;2023-02-25T09:58:24;3.97;;;0.95;;
20908;SDS011;10614;53.198;6.570;2023-02-25T10:00:32;7.53;;;1.20;;
20908;SDS011;10614;53.198;6.570;2023-02-25T10:02:42;7.18;;;1.10;;
20908;SDS011;10614;53.198;6.570;2023-02-25T10:04:53;3.33;;;1.08;;
20908;SDS011;10614;53.198;6.570;2023-02-25T10:07:06;7.88;;;1.05;;
20908;SDS011;10614;53.198;6.570;2023-02-25T10:09:19;2.13;;;0.95;;
20908;SDS011;10614;53.198;6.570;2023-02-25T10:11:30;4.45;;;0.70;;
20908;SDS011;10614;53.198;6.570;2023-02-25T10:13:44;7.57;;;0.98;;
20908;SDS011;10614;53.198;6.570;2023-02-25T10:15:55;7.18;;;0.73;;
20908;SDS011;10614;53.198;6.570;2023-02-25T10:18:12;2.50;;;0.80;;
20908;SDS011;10614;53.198;6.570;2023-02-25T10:20:32;6.28;;;0.70;;
20908;SDS011;10614;53.198;6.570;2023-02-25T10:22:44;6.35;;;0.80;;
20908;SDS011;10614;53.198;6.570;2023-02-25T10:24:53;4.18;;;0.70;;
20908;SDS011;10614;53.198;6.570;2023-02-25T10:27:00;6.50;;;0.65;;
20908;SDS011;10614;53.198;6.570;2023-02-25T10:29:11;4.97;;;0.95;;
20908;SDS011;10614;53.198;6.570;2023-02-25T10:31:28;4.63;;;0.85;;
20908;SDS011;10614;53.198;6.570;2023-02-25T10:35:37;5.13;;;0.70;;
20908;SDS011;10614;53.198;6.570;2023-02-25T10:37:40;1.10;;;0.40;;
20908;SDS011;10614;53.198;6.570;2023-02-25T10:39:42;2.97;;;0.57;;
20908;SDS011;10614;53.198;6.570;2023-02-25T10:41:48;4.40;;;0.85;;
20908;SDS011;10614;53.198;6.570;2023-02-25T10:43:51;8.77;;;1.05;;
20908;SDS011;10614;53.198;6.570;2023-02-25T10:45:56;3.30;;;0.50;;
20908;SDS011;10614;53.198;6.570;2023-02-25T10:48:03;5.50;;;0.93;;
20908;SDS011;10614;53.198;6.570;2023-02-25T10:50:15;4.57;;;0.80;;
20908;SDS011;10614;53.198;6.570;2023-02-25T10:52:19;8.80;;;0.80;;
20908;SDS011;10614;53.198;6.570;2023-02-25T10:54:21;6.68;;;0.80;;
20908;SDS011;10614;53.198;6.570;2023-02-25T10:56:24;5.18;;;0.73;;
20908;SDS011;10614;53.198;6.570;2023-02-25T10:58:34;4.60;;;1.00;;
20908;SDS011;10614;53.198;6.570;2023-02-25T11:00:39;4.45;;;0.60;;
20908;SDS011;10614;53.198;6.570;2023-02-25T11:02:56;1.83;;;0.50;;
20908;SDS011;10614;53.198;6.570;2023-02-25T11:05:00;3.00;;;0.60;;
20908;SDS011;10614;53.198;6.570;2023-02-25T11:07:02;2.25;;;0.60;;
20908;SDS011;10614;53.198;6.570;2023-02-25T11:09:29;1.70;;;0.57;;
20908;SDS011;10614;53.198;6.570;2023-02-25T11:11:36;9.82;;;0.68;;
20908;SDS011;10614;53.198;6.570;2023-02-25T11:13:39;5.22;;;0.90;;
20908;SDS011;10614;53.198;6.570;2023-02-25T11:15:40;1.77;;;0.30;;
20908;SDS011;10614;53.198;6.570;2023-02-25T11:17:43;5.45;;;0.70;;
20908;SDS011;10614;53.198;6.570;2023-02-25T11:19:45;3.67;;;0.80;;
20908;SDS011;10614;53.198;6.570;2023-02-25T11:21:49;6.82;;;0.80;;
20908;SDS011;10614;53.198;6.570;2023-02-25T11:23:51;2.50;;;0.70;;
20908;SDS011;10614;53.198;6.570;2023-02-25T11:25:54;8.27;;;1.35;;
20908;SDS011;10614;53.198;6.570;2023-02-25T11:27:56;7.43;;;0.80;;
20908;SDS011;10614;53.198;6.570;2023-02-25T11:30:02;7.22;;;0.80;;
20908;SDS011;10614;53.198;6.570;2023-02-25T11:32:08;3.83;;;0.45;;
20908;SDS011;10614;53.198;6.570;2023-02-25T11:34:13;2.15;;;0.55;;
20908;SDS011;10614;53.198;6.570;2023-02-25T11:36:20;2.85;;;0.60;;
20908;SDS011;10614;53.198;6.570;2023-02-25T11:38:23;3.92;;;0.63;;
20908;SDS011;10614;53.198;6.570;2023-02-25T11:40:27;4.47;;;0.70;;
20908;SDS011;10614;53.198;6.570;2023-02-25T11:42:31;2.50;;;0.57;;
20908;SDS011;10614;53.198;6.570;2023-02-25T11:44:39;2.70;;;0.82;;
20908;SDS011;10614;53.198;6.570;2023-02-25T11:46:45;3.33;;;0.60;;
20908;SDS011;10614;53.198;6.570;2023-02-25T11:48:57;3.97;;;0.68;;
20908;SDS011;10614;53.198;6.570;2023-02-25T11:51:04;2.20;;;0.50;;
20908;SDS011;10614;53.198;6.570;2023-02-25T11:53:14;6.10;;;0.43;;
20908;SDS011;10614;53.198;6.570;2023-02-25T11:55:29;4.30;;;0.63;;
20908;SDS011;10614;53.198;6.570;2023-02-25T11:57:47;2.95;;;0.60;;
20908;SDS011;10614;53.198;6.570;2023-02-25T12:00:12;2.17;;;0.60;;
20908;SDS011;10614;53.198;6.570;2023-02-25T12:02:31;3.33;;;0.80;;
20908;SDS011;10614;53.198;6.570;2023-02-25T12:04:52;5.47;;;0.65;;
20908;SDS011;10614;53.198;6.570;2023-02-25T12:09:30;2.28;;;0.38;;
20908;SDS011;10614;53.198;6.570;2023-02-25T12:11:56;3.83;;;0.80;;
20908;SDS011;10614;53.198;6.570;2023-02-25T12:14:43;1.67;;;0.70;;
20908;SDS011;10614;53.198;6.570;2023-02-25T12:17:08;4.32;;;0.52;;
20908;SDS011;10614;53.198;6.570;2023-02-25T12:19:51;1.70;;;0.30;;
20908;SDS011;10614;53.198;6.570;2023-02-25T12:22:26;1.00;;;0.50;;
20908;SDS011;10614;53.198;6.570;2023-02-25T12:24:58;2.88;;;0.47;;
20908;SDS011;10614;53.198;6.570;2023-02-25T12:27:19;3.00;;;0.40;;
20908;SDS011;10614;53.198;6.570;2023-02-25T12:29:50;3.22;;;0.68;;
20908;SDS011;10614;53.198;6.570;2023-02-25T12:34:44;8.20;;;1.00;;
20908;SDS011;10614;53.198;6.570;2023-02-25T12:37:26;3.30;;;0.63;;
20908;SDS011;10614;53.198;6.570;2023-02-25T12:39:45;3.20;;;0.70;;
20908;SDS011;10614;53.198;6.570;2023-02-25T12:41:52;4.22;;;0.70;;
20908;SDS011;10614;53.198;6.570;2023-02-25T12:44:13;8.23;;;0.88;;
20908;SDS011;10614;53.198;6.570;2023-02-25T12:46:46;8.43;;;1.00;;
20908;SDS011;10614;53.198;6.570;2023-02-25T12:49:15;7.32;;;0.90;;